sensor_id;sensor_type;location;lat;lon;timestamp;pressure;altitude;pressure_sealevel;temperature;humidity
18918;BME280;9591;52.742;13.650;2023-04-06T00:01:35;101638.69;;;6.44;80.80
18918;BME280;9591;52.742;13.650;2023-04-06T00:04:21;101638.69;;;6.39;81.96
18918;BME280;9591;52.742;13.650;2023-04-06T00:07:08;101633.44;;;6.42;80.28
18918;BME280;9591;52.742;13.650;2023-04-06T00:09:55;101630.78;;;6.54;80.54
18918;BME280;9591;52.742;13.650;2023-04-06T00:12:42;101629.03;;;6.53;78.74
18918;BME280;9591;52.742;13.650;2023-04-06T00:15:30;101626.41;;;6.50;80.03
18918;BME280;9591;52.742;13.650;2023-04-06T00:18:17;101632.56;;;6.46;81.07
18918;BME280;9591;52.742;13.650;2023-04-06T00:21:05;101579.94;;;6.22;80.43
18918;BME280;9591;52.742;13.650;2023-04-06T00:23:51;101631.66;;;6.53;80.34
18918;BME280;9591;52.742;13.650;2023-04-06T00:26:38;101624.66;;;6.58;80.32
18918;BME280;9591;52.742;13.650;2023-04-06T00:29:25;101629.03;;;6.56;80.29
18918;BME280;9591;52.742;13.650;2023-04-06T00:32:13;101632.53;;;6.55;80.59
18918;BME280;9591;52.742;13.650;2023-04-06T00:35:01;101629.03;;;6.50;81.35
18918;BME280;9591;52.742;13.650;2023-04-06T00:37:48;101629.94;;;6.45;81.89
18918;BME280;9591;52.742;13.650;2023-04-06T00:40:34;101624.66;;;6.34;83.25
18918;BME280;9591;52.742;13.650;2023-04-06T00:43:21;101622.03;;;6.33;82.85
18918;BME280;9591;52.742;13.650;2023-04-06T00:46:09;101621.16;;;6.32;83.11
18918;BME280;9591;52.742;13.650;2023-04-06T00:48:58;101623.78;;;6.37;82.74
18918;BME280;9591;52.742;13.650;2023-04-06T00:51:45;101619.41;;;6.23;84.47
18918;BME280;9591;52.742;13.650;2023-04-06T00:54:32;101615.91;;;6.11;85.46
18918;BME280;9591;52.742;13.650;2023-04-06T00:57:20;101620.31;;;6.06;85.72
18918;BME280;9591;52.742;13.650;2023-04-06T01:00:13;101629.97;;;5.99;86.46
18918;BME280;9591;52.742;13.650;2023-04-06T01:03:02;101621.19;;;5.97;86.51
18918;BME280;9591;52.742;13.650;2023-04-06T01:05:58;101614.16;;;5.93;87.35
18918;BME280;9591;52.742;13.650;2023-04-06T01:08:52;101614.16;;;5.90;87.51
18918;BME280;9591;52.742;13.650;2023-04-06T01:11:42;101615.88;;;5.86;87.82
18918;BME280;9591;52.742;13.650;2023-04-06T01:14:34;101610.63;;;5.88;87.08
18918;BME280;9591;52.742;13.650;2023-04-06T01:17:21;101609.75;;;5.86;87.53
18918;BME280;9591;52.742;13.650;2023-04-06T01:20:08;101604.50;;;5.87;86.76
18918;BME280;9591;52.742;13.650;2023-04-06T01:22:57;101618.56;;;5.89;86.30
18918;BME280;9591;52.742;13.650;2023-04-06T01:25:44;101613.25;;;5.83;86.23
18918;BME280;9591;52.742;13.650;2023-04-06T01:28:31;101614.13;;;5.87;86.03
18918;BME280;9591;52.742;13.650;2023-04-06T01:31:26;101565.88;;;5.54;85.95
18918;BME280;9591;52.742;13.650;2023-04-06T01:34:13;101616.72;;;5.63;87.20
18918;BME280;9591;52.742;13.650;2023-04-06T01:36:59;101615.88;;;5.77;86.25
18918;BME280;9591;52.742;13.650;2023-04-06T01:39:50;101614.09;;;5.66;86.59
18918;BME280;9591;52.742;13.650;2023-04-06T01:42:45;101616.72;;;5.59;87.05
18918;BME280;9591;52.742;13.650;2023-04-06T01:45:38;101616.69;;;5.52;87.29
18918;BME280;9591;52.742;13.650;2023-04-06T01:48:33;101615.81;;;5.54;86.40
18918;BME280;9591;52.742;13.650;2023-04-06T01:51:29;101621.06;;;5.54;86.17
18918;BME280;9591;52.742;13.650;2023-04-06T01:54:19;101611.41;;;5.46;86.91
18918;BME280;9591;52.742;13.650;2023-04-06T01:57:16;101617.56;;;5.52;85.98
18918;BME280;9591;52.742;13.650;2023-04-06T02:00:09;101617.53;;;5.43;86.79
18918;BME280;9591;52.742;13.650;2023-04-06T02:03:04;101612.25;;;5.36;87.17
18918;BME280;9591;52.742;13.650;2023-04-06T02:05:51;101614.88;;;5.30;87.38
18918;BME280;9591;52.742;13.650;2023-04-06T02:08:44;101610.44;;;5.10;89.32
18918;BME280;9591;52.742;13.650;2023-04-06T02:11:31;101614.75;;;4.93;90.92
18918;BME280;9591;52.742;13.650;2023-04-06T02:14:19;101616.44;;;4.85;90.84
18918;BME280;9591;52.742;13.650;2023-04-06T02:17:10;101614.72;;;4.87;90.00
18918;BME280;9591;52.742;13.650;2023-04-06T02:19:57;101610.22;;;4.68;91.71
18918;BME280;9591;52.742;13.650;2023-04-06T02:22:44;101612.00;;;4.72;90.80
18918;BME280;9591;52.742;13.650;2023-04-06T02:25:31;101611.09;;;4.67;90.29
18918;BME280;9591;52.742;13.650;2023-04-06T02:28:17;101611.03;;;4.56;89.83
18918;BME280;9591;52.742;13.650;2023-04-06T02:31:07;101610.09;;;4.46;90.06
18918;BME280;9591;52.742;13.650;2023-04-06T02:33:53;101604.81;;;4.42;89.95
18918;BME280;9591;52.742;13.650;2023-04-06T02:36:41;101609.25;;;4.53;88.64
18918;BME280;9591;52.742;13.650;2023-04-06T02:39:27;101616.13;;;4.30;89.96
18918;BME280;9591;52.742;13.650;2023-04-06T02:42:14;101604.78;;;4.39;88.52
18918;BME280;9591;52.742;13.650;2023-04-06T02:45:03;101610.00;;;4.34;88.11
18918;BME280;9591;52.742;13.650;2023-04-06T02:47:57;101612.53;;;4.19;89.94
18918;BME280;9591;52.742;13.650;2023-04-06T02:50:45;101616.94;;;4.21;89.24
18918;BME280;9591;52.742;13.650;2023-04-06T02:53:32;101620.44;;;4.22;89.32
18918;BME280;9591;52.742;13.650;2023-04-06T02:56:19;101625.63;;;4.14;89.65
18918;BME280;9591;52.742;13.650;2023-04-06T02:59:09;101621.00;;;3.86;90.93
18918;BME280;9591;52.742;13.650;2023-04-06T03:02:00;101618.25;;;3.74;91.61
18918;BME280;9591;52.742;13.650;2023-04-06T03:04:49;101624.25;;;3.62;92.12
18918;BME280;9591;52.742;13.650;2023-04-06T03:07:45;101531.16;;;3.07;91.68
18918;BME280;9591;52.742;13.650;2023-04-06T03:10:41;101622.31;;;3.43;94.62
18918;BME280;9591;52.742;13.650;2023-04-06T03:13:28;101619.66;;;3.38;95.04
18918;BME280;9591;52.742;13.650;2023-04-06T03:16:16;101613.44;;;3.28;95.55
18918;BME280;9591;52.742;13.650;2023-04-06T03:19:02;101617.00;;;3.37;94.96
18918;BME280;9591;52.742;13.650;2023-04-06T03:21:53;101621.22;;;3.24;96.07
18918;BME280;9591;52.742;13.650;2023-04-06T03:24:42;101618.56;;;3.21;95.61
18918;BME280;9591;52.742;13.650;2023-04-06T03:27:28;101625.56;;;3.20;95.55
18918;BME280;9591;52.742;13.650;2023-04-06T03:30:16;101630.75;;;3.17;95.78
18918;BME280;9591;52.742;13.650;2023-04-06T03:33:02;101621.88;;;3.05;96.65
18918;BME280;9591;52.742;13.650;2023-04-06T03:35:55;101629.63;;;2.99;98.41
18918;BME280;9591;52.742;13.650;2023-04-06T03:38:45;101639.38;;;3.10;96.21
18918;BME280;9591;52.742;13.650;2023-04-06T03:41:32;101630.41;;;2.90;98.88
18918;BME280;9591;52.742;13.650;2023-04-06T03:44:44;101633.09;;;2.96;97.74
18918;BME280;9591;52.742;13.650;2023-04-06T03:47:30;101643.44;;;2.87;98.77
18918;BME280;9591;52.742;13.650;2023-04-06T03:50:22;101634.72;;;2.86;98.84
18918;BME280;9591;52.742;13.650;2023-04-06T03:53:09;101643.34;;;2.81;98.69
18918;BME280;9591;52.742;13.650;2023-04-06T03:55:57;101649.53;;;2.86;98.36
18918;BME280;9591;52.742;13.650;2023-04-06T03:58:45;101647.84;;;2.89;97.68
18918;BME280;9591;52.742;13.650;2023-04-06T04:01:38;101653.06;;;2.89;98.50
18918;BME280;9591;52.742;13.650;2023-04-06T04:04:25;101654.00;;;2.94;97.70
18918;BME280;9591;52.742;13.650;2023-04-06T04:07:12;101653.03;;;2.88;98.04
18918;BME280;9591;52.742;13.650;2023-04-06T04:09:59;101655.50;;;2.77;99.22
18918;BME280;9591;52.742;13.650;2023-04-06T04:12:56;101661.03;;;2.97;96.74
18918;BME280;9591;52.742;13.650;2023-04-06T04:15:46;101667.03;;;2.90;97.94
18918;BME280;9591;52.742;13.650;2023-04-06T04:18:33;101654.94;;;2.98;96.37
18918;BME280;9591;52.742;13.650;2023-04-06T04:21:20;101664.38;;;2.87;97.71
18918;BME280;9591;52.742;13.650;2023-04-06T04:24:07;101662.69;;;2.92;97.10
18918;BME280;9591;52.742;13.650;2023-04-06T04:26:55;101661.75;;;2.87;96.86
18918;BME280;9591;52.742;13.650;2023-04-06T04:29:43;101661.84;;;2.93;96.41
18918;BME280;9591;52.742;13.650;2023-04-06T04:32:30;101667.16;;;2.99;95.51
18918;BME280;9591;52.742;13.650;2023-04-06T04:35:20;101668.75;;;2.88;96.19
18918;BME280;9591;52.742;13.650;2023-04-06T04:38:07;101667.72;;;2.77;97.59
18918;BME280;9591;52.742;13.650;2023-04-06T04:40:58;101667.53;;;2.64;98.40
18918;BME280;9591;52.742;13.650;2023-04-06T04:43:45;101675.44;;;2.69;97.53
18918;BME280;9591;52.742;13.650;2023-04-06T04:46:40;101669.19;;;2.56;99.50
18918;BME280;9591;52.742;13.650;2023-04-06T04:49:29;101675.25;;;2.55;99.58
18918;BME280;9591;52.742;13.650;2023-04-06T04:52:16;101666.53;;;2.55;100.00
18918;BME280;9591;52.742;13.650;2023-04-06T04:55:15;101663.09;;;2.57;99.35
18918;BME280;9591;52.742;13.650;2023-04-06T04:58:06;101669.16;;;2.55;100.00
18918;BME280;9591;52.742;13.650;2023-04-06T05:01:05;101668.31;;;2.56;99.50
18918;BME280;9591;52.742;13.650;2023-04-06T05:03:54;101675.34;;;2.60;99.90
18918;BME280;9591;52.742;13.650;2023-04-06T05:06:41;101671.84;;;2.62;100.00
18918;BME280;9591;52.742;13.650;2023-04-06T05:09:29;101672.94;;;2.77;100.00
18918;BME280;9591;52.742;13.650;2023-04-06T05:12:18;101675.09;;;3.05;100.00
18918;BME280;9591;52.742;13.650;2023-04-06T05:15:16;101675.28;;;3.20;99.54
18918;BME280;9591;52.742;13.650;2023-04-06T05:18:05;101683.94;;;3.90;99.92
18918;BME280;9591;52.742;13.650;2023-04-06T05:20:55;101670.91;;;5.19;88.99
18918;BME280;9591;52.742;13.650;2023-04-06T05:23:50;101675.53;;;6.33;80.75
18918;BME280;9591;52.742;13.650;2023-04-06T05:26:37;101675.53;;;6.57;77.65
18918;BME280;9591;52.742;13.650;2023-04-06T05:29:31;101673.75;;;6.88;80.30
18918;BME280;9591;52.742;13.650;2023-04-06T05:32:20;101672.88;;;6.77;79.40
18918;BME280;9591;52.742;13.650;2023-04-06T05:35:11;101670.25;;;6.64;78.74
18918;BME280;9591;52.742;13.650;2023-04-06T05:38:05;101687.72;;;5.72;79.86
18918;BME280;9591;52.742;13.650;2023-04-06T05:40:52;101691.13;;;5.45;82.89
18918;BME280;9591;52.742;13.650;2023-04-06T05:43:43;101689.31;;;5.32;83.15
18918;BME280;9591;52.742;13.650;2023-04-06T05:46:30;101696.22;;;5.08;84.33
18918;BME280;9591;52.742;13.650;2023-04-06T05:49:17;101693.53;;;4.96;85.67
18918;BME280;9591;52.742;13.650;2023-04-06T05:52:04;101689.16;;;4.98;86.29
18918;BME280;9591;52.742;13.650;2023-04-06T05:54:54;101690.06;;;5.02;86.23
18918;BME280;9591;52.742;13.650;2023-04-06T05:57:42;101690.09;;;5.09;87.10
18918;BME280;9591;52.742;13.650;2023-04-06T06:00:34;101696.25;;;5.16;86.99
18918;BME280;9591;52.742;13.650;2023-04-06T06:03:24;101690.16;;;5.23;87.38
18918;BME280;9591;52.742;13.650;2023-04-06T06:06:14;101691.09;;;5.40;86.79
18918;BME280;9591;52.742;13.650;2023-04-06T06:09:19;101694.66;;;5.53;87.38
18918;BME280;9591;52.742;13.650;2023-04-06T06:12:34;101693.84;;;5.69;87.92
18918;BME280;9591;52.742;13.650;2023-04-06T06:15:21;101695.69;;;5.93;87.39
18918;BME280;9591;52.742;13.650;2023-04-06T06:18:08;101694.81;;;6.76;83.76
18918;BME280;9591;52.742;13.650;2023-04-06T06:20:56;101688.53;;;7.29;78.13
18918;BME280;9591;52.742;13.650;2023-04-06T06:23:43;101690.88;;;7.82;75.81
18918;BME280;9591;52.742;13.650;2023-04-06T06:26:35;101690.75;;;8.04;73.60
18918;BME280;9591;52.742;13.650;2023-04-06T06:29:26;101692.59;;;7.93;75.43
18918;BME280;9591;52.742;13.650;2023-04-06T06:32:13;101690.69;;;8.14;76.41
18918;BME280;9591;52.742;13.650;2023-04-06T06:35:01;101691.72;;;7.92;75.85
18918;BME280;9591;52.742;13.650;2023-04-06T06:37:47;101695.13;;;8.08;74.91
18918;BME280;9591;52.742;13.650;2023-04-06T06:40:40;101703.84;;;8.20;72.06
18918;BME280;9591;52.742;13.650;2023-04-06T06:43:27;101691.06;;;8.77;71.27
18918;BME280;9591;52.742;13.650;2023-04-06T06:46:19;101699.50;;;9.11;65.46
18918;BME280;9591;52.742;13.650;2023-04-06T06:49:06;101697.63;;;9.23;63.28
18918;BME280;9591;52.742;13.650;2023-04-06T06:51:53;101700.34;;;9.15;62.96
18918;BME280;9591;52.742;13.650;2023-04-06T06:54:40;101702.22;;;9.07;63.95
18918;BME280;9591;52.742;13.650;2023-04-06T06:57:27;101705.81;;;9.00;64.27
18918;BME280;9591;52.742;13.650;2023-04-06T07:00:15;101703.16;;;9.01;62.23
18918;BME280;9591;52.742;13.650;2023-04-06T07:03:05;101703.88;;;9.15;61.36
18918;BME280;9591;52.742;13.650;2023-04-06T07:05:52;101700.75;;;9.55;59.25
18918;BME280;9591;52.742;13.650;2023-04-06T07:08:41;101695.38;;;9.61;59.88
18918;BME280;9591;52.742;13.650;2023-04-06T07:11:28;101705.31;;;9.44;58.09
18918;BME280;9591;52.742;13.650;2023-04-06T07:14:15;101698.94;;;9.57;58.96
18918;BME280;9591;52.742;13.650;2023-04-06T07:17:02;101696.22;;;9.65;58.94
18918;BME280;9591;52.742;13.650;2023-04-06T07:19:50;101703.97;;;9.77;58.05
18918;BME280;9591;52.742;13.650;2023-04-06T07:22:37;101702.94;;;9.89;56.60
18918;BME280;9591;52.742;13.650;2023-04-06T07:25:24;101701.97;;;9.96;57.10
18918;BME280;9591;52.742;13.650;2023-04-06T07:28:11;101703.59;;;10.04;58.31
18918;BME280;9591;52.742;13.650;2023-04-06T07:30:58;101699.59;;;9.76;58.25
18918;BME280;9591;52.742;13.650;2023-04-06T07:33:46;101698.28;;;9.43;59.81
18918;BME280;9591;52.742;13.650;2023-04-06T07:36:35;101694.38;;;9.70;58.88
18918;BME280;9591;52.742;13.650;2023-04-06T07:39:21;101699.72;;;9.67;58.07
18918;BME280;9591;52.742;13.650;2023-04-06T07:42:09;101690.66;;;9.84;54.54
18918;BME280;9591;52.742;13.650;2023-04-06T07:44:56;101689.06;;;10.34;53.92
18918;BME280;9591;52.742;13.650;2023-04-06T07:47:44;101700.59;;;10.30;53.55
18918;BME280;9591;52.742;13.650;2023-04-06T07:50:32;101694.56;;;10.21;55.09
18918;BME280;9591;52.742;13.650;2023-04-06T07:53:22;101695.44;;;10.18;54.90
18918;BME280;9591;52.742;13.650;2023-04-06T07:56:10;101695.44;;;10.18;52.89
18918;BME280;9591;52.742;13.650;2023-04-06T07:58:58;101704.38;;;10.11;51.82
18918;BME280;9591;52.742;13.650;2023-04-06T08:01:45;101704.88;;;10.39;51.77
18918;BME280;9591;52.742;13.650;2023-04-06T08:04:31;101704.75;;;10.45;51.28
18918;BME280;9591;52.742;13.650;2023-04-06T08:07:18;101699.88;;;10.71;52.21
18918;BME280;9591;52.742;13.650;2023-04-06T08:10:07;101705.53;;;11.01;48.53
18918;BME280;9591;52.742;13.650;2023-04-06T08:12:53;101702.91;;;11.44;48.41
18918;BME280;9591;52.742;13.650;2023-04-06T08:15:40;101707.88;;;11.59;47.91
18918;BME280;9591;52.742;13.650;2023-04-06T08:18:27;101705.25;;;12.01;46.50
18918;BME280;9591;52.742;13.650;2023-04-06T08:21:15;101705.09;;;12.07;44.26
18918;BME280;9591;52.742;13.650;2023-04-06T08:24:02;101710.13;;;12.18;45.60
18918;BME280;9591;52.742;13.650;2023-04-06T08:26:50;101709.81;;;12.31;43.79
18918;BME280;9591;52.742;13.650;2023-04-06T08:29:37;101701.97;;;13.29;42.45
18918;BME280;9591;52.742;13.650;2023-04-06T08:32:25;101700.13;;;14.47;37.18
18918;BME280;9591;52.742;13.650;2023-04-06T08:35:11;101698.56;;;15.41;36.62
18918;BME280;9591;52.742;13.650;2023-04-06T08:37:58;101697.19;;;16.23;35.36
18918;BME280;9591;52.742;13.650;2023-04-06T08:40:45;101693.03;;;16.80;33.19
18918;BME280;9591;52.742;13.650;2023-04-06T08:43:41;101693.03;;;17.39;32.39
18918;BME280;9591;52.742;13.650;2023-04-06T08:46:29;101699.56;;;17.73;31.47
18918;BME280;9591;52.742;13.650;2023-04-06T08:49:17;101696.47;;;17.82;31.27
18918;BME280;9591;52.742;13.650;2023-04-06T08:52:06;101698.72;;;17.91;31.38
18918;BME280;9591;52.742;13.650;2023-04-06T08:54:53;101690.09;;;18.20;31.00
18918;BME280;9591;52.742;13.650;2023-04-06T08:57:40;101691.38;;;17.36;32.72
18918;BME280;9591;52.742;13.650;2023-04-06T09:00:29;101693.50;;;16.03;34.05
18918;BME280;9591;52.742;13.650;2023-04-06T09:03:16;101699.56;;;15.14;35.11
18918;BME280;9591;52.742;13.650;2023-04-06T09:06:04;101695.16;;;14.63;36.48
18918;BME280;9591;52.742;13.650;2023-04-06T09:08:51;101691.72;;;15.09;35.33
18918;BME280;9591;52.742;13.650;2023-04-06T09:11:45;101692.94;;;15.25;34.32
18918;BME280;9591;52.742;13.650;2023-04-06T09:14:36;101681.97;;;15.33;35.18
18918;BME280;9591;52.742;13.650;2023-04-06T09:17:26;101693.91;;;15.23;35.70
18918;BME280;9591;52.742;13.650;2023-04-06T09:20:13;101692.06;;;15.00;34.94
18918;BME280;9591;52.742;13.650;2023-04-06T09:23:02;101682.13;;;14.54;38.03
18918;BME280;9591;52.742;13.650;2023-04-06T09:25:49;101675.97;;;14.52;36.37
18918;BME280;9591;52.742;13.650;2023-04-06T09:28:43;101686.63;;;13.96;38.14
18918;BME280;9591;52.742;13.650;2023-04-06T09:31:31;101688.97;;;13.78;37.79
18918;BME280;9591;52.742;13.650;2023-04-06T09:34:23;101682.41;;;13.61;37.51
18918;BME280;9591;52.742;13.650;2023-04-06T09:37:13;101672.78;;;13.57;38.59
18918;BME280;9591;52.742;13.650;2023-04-06T09:40:05;101682.53;;;13.56;37.98
18918;BME280;9591;52.742;13.650;2023-04-06T09:42:52;101685.03;;;13.31;37.74
18918;BME280;9591;52.742;13.650;2023-04-06T09:45:42;101680.28;;;13.42;37.02
18918;BME280;9591;52.742;13.650;2023-04-06T09:48:31;101679.06;;;13.54;36.74
18918;BME280;9591;52.742;13.650;2023-04-06T09:51:19;101668.78;;;13.42;38.03
18918;BME280;9591;52.742;13.650;2023-04-06T09:54:07;101675.84;;;13.43;37.38
18918;BME280;9591;52.742;13.650;2023-04-06T09:56:56;101671.03;;;13.85;38.12
18918;BME280;9591;52.742;13.650;2023-04-06T09:59:50;101673.78;;;13.82;38.66
18918;BME280;9591;52.742;13.650;2023-04-06T10:02:47;101669.09;;;13.89;36.89
18918;BME280;9591;52.742;13.650;2023-04-06T10:05:38;101665.56;;;13.88;37.63
18918;BME280;9591;52.742;13.650;2023-04-06T10:08:33;101670.38;;;13.77;38.88
18918;BME280;9591;52.742;13.650;2023-04-06T10:11:24;101659.47;;;13.86;39.20
18918;BME280;9591;52.742;13.650;2023-04-06T10:14:12;101663.94;;;13.25;38.02
18918;BME280;9591;52.742;13.650;2023-04-06T10:17:03;101656.06;;;13.52;37.62
18918;BME280;9591;52.742;13.650;2023-04-06T10:19:53;101664.91;;;13.23;37.41
18918;BME280;9591;52.742;13.650;2023-04-06T10:22:45;101664.00;;;12.57;39.18
18918;BME280;9591;52.742;13.650;2023-04-06T10:25:40;101668.06;;;12.72;40.12
18918;BME280;9591;52.742;13.650;2023-04-06T10:28:43;101660.59;;;13.48;40.73
18918;BME280;9591;52.742;13.650;2023-04-06T10:31:31;101658.94;;;14.01;37.30
18918;BME280;9591;52.742;13.650;2023-04-06T10:34:18;101657.09;;;14.83;36.64
18918;BME280;9591;52.742;13.650;2023-04-06T10:37:13;101661.00;;;15.22;33.97
18918;BME280;9591;52.742;13.650;2023-04-06T10:40:00;101656.00;;;15.13;33.42
18918;BME280;9591;52.742;13.650;2023-04-06T10:42:49;101657.59;;;15.42;33.84
18918;BME280;9591;52.742;13.650;2023-04-06T10:45:36;101662.25;;;15.37;31.09
18918;BME280;9591;52.742;13.650;2023-04-06T10:48:24;101654.84;;;14.72;32.74
18918;BME280;9591;52.742;13.650;2023-04-06T10:51:14;101647.81;;;14.94;32.72
18918;BME280;9591;52.742;13.650;2023-04-06T10:54:03;101655.38;;;15.06;32.73
18918;BME280;9591;52.742;13.650;2023-04-06T10:56:51;101646.88;;;14.46;33.67
18918;BME280;9591;52.742;13.650;2023-04-06T10:59:44;101639.25;;;14.85;33.95
18918;BME280;9591;52.742;13.650;2023-04-06T11:02:31;101643.16;;;14.99;33.60
18918;BME280;9591;52.742;13.650;2023-04-06T11:05:18;101640.72;;;15.18;34.32
18918;BME280;9591;52.742;13.650;2023-04-06T11:08:05;101633.09;;;14.83;33.73
18918;BME280;9591;52.742;13.650;2023-04-06T11:11:03;101636.97;;;14.74;35.48
18918;BME280;9591;52.742;13.650;2023-04-06T11:13:52;101642.19;;;15.02;34.13
18918;BME280;9591;52.742;13.650;2023-04-06T11:16:41;101639.19;;;15.11;35.02
18918;BME280;9591;52.742;13.650;2023-04-06T11:19:28;101647.97;;;15.38;33.31
18918;BME280;9591;52.742;13.650;2023-04-06T11:22:15;101647.00;;;14.92;32.89
18918;BME280;9591;52.742;13.650;2023-04-06T11:25:05;101649.38;;;14.75;34.93
18918;BME280;9591;52.742;13.650;2023-04-06T11:27:52;101636.91;;;14.51;34.51
18918;BME280;9591;52.742;13.650;2023-04-06T11:30:39;101639.22;;;14.07;36.93
18918;BME280;9591;52.742;13.650;2023-04-06T11:33:27;101634.63;;;13.86;35.64
18918;BME280;9591;52.742;13.650;2023-04-06T11:36:14;101635.38;;;13.61;34.58
18918;BME280;9591;52.742;13.650;2023-04-06T11:39:00;101630.72;;;13.96;34.94
18918;BME280;9591;52.742;13.650;2023-04-06T11:41:49;101634.00;;;14.04;34.24
18918;BME280;9591;52.742;13.650;2023-04-06T11:44:37;101631.78;;;13.90;33.89
18918;BME280;9591;52.742;13.650;2023-04-06T11:47:28;101627.94;;;13.43;36.71
18918;BME280;9591;52.742;13.650;2023-04-06T11:50:16;101631.25;;;13.51;38.19
18918;BME280;9591;52.742;13.650;2023-04-06T11:53:03;101627.72;;;13.51;37.21
18918;BME280;9591;52.742;13.650;2023-04-06T11:55:50;101621.72;;;12.82;36.37
18918;BME280;9591;52.742;13.650;2023-04-06T11:58:37;101616.09;;;12.60;39.11
18918;BME280;9591;52.742;13.650;2023-04-06T12:01:24;101620.88;;;12.80;38.91
18918;BME280;9591;52.742;13.650;2023-04-06T12:04:11;101628.75;;;13.14;39.03
18918;BME280;9591;52.742;13.650;2023-04-06T12:06:59;101622.03;;;13.33;38.41
18918;BME280;9591;52.742;13.650;2023-04-06T12:09:46;101612.25;;;13.63;38.33
18918;BME280;9591;52.742;13.650;2023-04-06T12:12:32;101619.41;;;13.32;36.85
18918;BME280;9591;52.742;13.650;2023-04-06T12:15:20;101614.47;;;12.87;37.82
18918;BME280;9591;52.742;13.650;2023-04-06T12:18:06;101612.84;;;13.12;37.77
18918;BME280;9591;52.742;13.650;2023-04-06T12:20:54;101609.63;;;13.32;38.33
18918;BME280;9591;52.742;13.650;2023-04-06T12:23:42;101539.31;;;12.50;36.36
18918;BME280;9591;52.742;13.650;2023-04-06T12:26:30;101609.78;;;13.28;37.99
18918;BME280;9591;52.742;13.650;2023-04-06T12:29:16;101603.53;;;13.58;37.07
18918;BME280;9591;52.742;13.650;2023-04-06T12:32:03;101610.59;;;13.59;35.76
18918;BME280;9591;52.742;13.650;2023-04-06T12:34:52;101609.50;;;13.93;36.63
18918;BME280;9591;52.742;13.650;2023-04-06T12:37:38;101608.00;;;13.86;35.49
18918;BME280;9591;52.742;13.650;2023-04-06T12:40:26;101602.44;;;13.92;35.96
18918;BME280;9591;52.742;13.650;2023-04-06T12:43:13;101596.97;;;14.23;35.06
18918;BME280;9591;52.742;13.650;2023-04-06T12:46:00;101608.47;;;14.51;35.43
18918;BME280;9591;52.742;13.650;2023-04-06T12:48:47;101599.00;;;14.42;33.25
18918;BME280;9591;52.742;13.650;2023-04-06T12:51:34;101600.16;;;14.34;32.26
18918;BME280;9591;52.742;13.650;2023-04-06T12:54:20;101594.59;;;13.87;33.52
18918;BME280;9591;52.742;13.650;2023-04-06T12:57:09;101580.22;;;14.19;32.77
18918;BME280;9591;52.742;13.650;2023-04-06T12:59:56;101585.03;;;14.34;35.01
18918;BME280;9591;52.742;13.650;2023-04-06T13:02:43;101589.69;;;14.28;33.40
18918;BME280;9591;52.742;13.650;2023-04-06T13:05:32;101584.94;;;14.37;32.65
18918;BME280;9591;52.742;13.650;2023-04-06T13:08:19;101583.09;;;14.39;31.79
18918;BME280;9591;52.742;13.650;2023-04-06T13:11:06;101580.22;;;14.19;30.75
18918;BME280;9591;52.742;13.650;2023-04-06T13:13:55;101576.94;;;14.37;33.08
18918;BME280;9591;52.742;13.650;2023-04-06T13:16:42;101576.63;;;13.94;32.78
18918;BME280;9591;52.742;13.650;2023-04-06T13:19:29;101575.19;;;14.10;33.93
18918;BME280;9591;52.742;13.650;2023-04-06T13:22:16;101568.97;;;14.62;33.94
18918;BME280;9591;52.742;13.650;2023-04-06T13:25:03;101564.97;;;14.51;33.49
18918;BME280;9591;52.742;13.650;2023-04-06T13:27:50;101567.47;;;14.29;33.64
18918;BME280;9591;52.742;13.650;2023-04-06T13:30:38;101570.13;;;14.29;34.63
18918;BME280;9591;52.742;13.650;2023-04-06T13:33:25;101565.97;;;13.94;34.71
18918;BME280;9591;52.742;13.650;2023-04-06T13:36:11;101562.34;;;13.96;36.80
18918;BME280;9591;52.742;13.650;2023-04-06T13:39:02;101569.66;;;13.63;37.98
18918;BME280;9591;52.742;13.650;2023-04-06T13:41:48;101560.06;;;13.86;37.79
18918;BME280;9591;52.742;13.650;2023-04-06T13:44:35;101559.97;;;13.61;37.35
18918;BME280;9591;52.742;13.650;2023-04-06T13:47:23;101548.66;;;13.54;37.72
18918;BME280;9591;52.742;13.650;2023-04-06T13:50:10;101560.03;;;13.30;36.95
18918;BME280;9591;52.742;13.650;2023-04-06T13:52:57;101549.72;;;13.19;37.11
18918;BME280;9591;52.742;13.650;2023-04-06T13:55:52;101557.34;;;13.31;37.89
18918;BME280;9591;52.742;13.650;2023-04-06T13:58:39;101551.94;;;13.34;37.81
18918;BME280;9591;52.742;13.650;2023-04-06T14:01:25;101550.00;;;13.67;36.40
18918;BME280;9591;52.742;13.650;2023-04-06T14:04:13;101540.41;;;13.62;36.85
18918;BME280;9591;52.742;13.650;2023-04-06T14:07:01;101548.25;;;13.93;37.03
18918;BME280;9591;52.742;13.650;2023-04-06T14:09:48;101554.88;;;14.07;34.36
18918;BME280;9591;52.742;13.650;2023-04-06T14:12:34;101552.66;;;14.47;34.06
18918;BME280;9591;52.742;13.650;2023-04-06T14:15:21;101553.44;;;14.73;33.63
18918;BME280;9591;52.742;13.650;2023-04-06T14:18:09;101550.97;;;14.44;35.05
18918;BME280;9591;52.742;13.650;2023-04-06T14:20:57;101548.16;;;14.49;35.66
18918;BME280;9591;52.742;13.650;2023-04-06T14:23:44;101546.06;;;14.05;36.07
18918;BME280;9591;52.742;13.650;2023-04-06T14:26:31;101547.28;;;13.41;36.07
18918;BME280;9591;52.742;13.650;2023-04-06T14:29:18;101539.09;;;13.75;37.47
18918;BME280;9591;52.742;13.650;2023-04-06T14:32:05;101538.13;;;13.22;36.02
18918;BME280;9591;52.742;13.650;2023-04-06T14:34:51;101538.47;;;13.39;36.49
18918;BME280;9591;52.742;13.650;2023-04-06T14:37:40;101529.06;;;13.57;37.92
18918;BME280;9591;52.742;13.650;2023-04-06T14:40:26;101531.63;;;13.60;35.69
18918;BME280;9591;52.742;13.650;2023-04-06T14:43:13;101537.53;;;13.10;37.35
18918;BME280;9591;52.742;13.650;2023-04-06T14:46:00;101535.88;;;13.06;38.75
18918;BME280;9591;52.742;13.650;2023-04-06T14:48:47;101540.56;;;13.00;37.38